sensor_id;sensor_type;location;lat;lon;timestamp;pressure;altitude;pressure_sealevel;temperature;humidity
7264;BME280;3673;52.480;13.348;2023-05-24T00:02:16;101358.31;;;15.48;49.71
7264;BME280;3673;52.480;13.348;2023-05-24T00:04:43;101360.09;;;15.48;49.52
7264;BME280;3673;52.480;13.348;2023-05-24T00:07:10;101357.56;;;15.37;49.99
7264;BME280;3673;52.480;13.348;2023-05-24T00:09:38;101361.41;;;15.04;50.68
7264;BME280;3673;52.480;13.348;2023-05-24T00:12:06;101366.72;;;14.98;50.99
7264;BME280;3673;52.480;13.348;2023-05-24T00:14:33;101372.94;;;14.89;51.20
7264;BME280;3673;52.480;13.348;2023-05-24T00:17:00;101372.16;;;14.80;51.18
7264;BME280;3673;52.480;13.348;2023-05-24T00:19:27;101372.09;;;14.84;50.86
7264;BME280;3673;52.480;13.348;2023-05-24T00:21:53;101372.66;;;15.18;50.28
7264;BME280;3673;52.480;13.348;2023-05-24T00:24:21;101373.81;;;14.90;50.67
7264;BME280;3673;52.480;13.348;2023-05-24T00:26:47;101380.16;;;14.65;51.11
7264;BME280;3673;52.480;13.348;2023-05-24T00:29:15;101381.06;;;14.62;51.19
7264;BME280;3673;52.480;13.348;2023-05-24T00:31:42;101386.78;;;15.14;49.89
7264;BME280;3673;52.480;13.348;2023-05-24T00:34:09;101389.41;;;15.16;49.46
7264;BME280;3673;52.480;13.348;2023-05-24T00:36:36;101378.06;;;15.06;50.03
7264;BME280;3673;52.480;13.348;2023-05-24T00:39:03;101380.47;;;15.30;49.71
7264;BME280;3673;52.480;13.348;2023-05-24T00:41:29;101381.38;;;15.25;49.26
7264;BME280;3673;52.480;13.348;2023-05-24T00:43:56;101378.16;;;14.95;50.25
7264;BME280;3673;52.480;13.348;2023-05-24T00:46:29;101370.13;;;15.09;50.20
7264;BME280;3673;52.480;13.348;2023-05-24T00:48:57;101373.09;;;14.71;51.45
7264;BME280;3673;52.480;13.348;2023-05-24T00:51:25;101371.31;;;14.72;51.36
7264;BME280;3673;52.480;13.348;2023-05-24T00:53:53;101378.09;;;15.03;51.06
7264;BME280;3673;52.480;13.348;2023-05-24T00:56:20;101377.84;;;15.30;50.51
7264;BME280;3673;52.480;13.348;2023-05-24T00:58:47;101378.06;;;15.06;51.07
7264;BME280;3673;52.480;13.348;2023-05-24T01:01:15;101378.94;;;15.05;51.77
7264;BME280;3673;52.480;13.348;2023-05-24T01:03:43;101371.47;;;15.53;50.41
7264;BME280;3673;52.480;13.348;2023-05-24T01:06:12;101368.69;;;15.66;49.86
7264;BME280;3673;52.480;13.348;2023-05-24T01:09:11;101376.06;;;15.32;50.69
7264;BME280;3673;52.480;13.348;2023-05-24T01:11:52;101378.00;;;15.12;51.15
7264;BME280;3673;52.480;13.348;2023-05-24T01:14:26;101382.34;;;15.18;51.39
7264;BME280;3673;52.480;13.348;2023-05-24T01:17:02;101381.44;;;15.23;51.23
7264;BME280;3673;52.480;13.348;2023-05-24T01:19:55;101393.78;;;15.17;51.48
7264;BME280;3673;52.480;13.348;2023-05-24T01:22:37;101387.66;;;15.13;51.80
7264;BME280;3673;52.480;13.348;2023-05-24T01:25:16;101385.25;;;14.84;52.79
7264;BME280;3673;52.480;13.348;2023-05-24T01:27:46;101387.06;;;14.78;52.96
7264;BME280;3673;52.480;13.348;2023-05-24T01:30:13;101384.19;;;15.08;52.40
7264;BME280;3673;52.480;13.348;2023-05-24T01:32:41;101382.63;;;14.84;52.92
7264;BME280;3673;52.480;13.348;2023-05-24T01:35:08;101387.63;;;15.16;52.55
7264;BME280;3673;52.480;13.348;2023-05-24T01:37:35;101381.78;;;14.84;53.04
7264;BME280;3673;52.480;13.348;2023-05-24T01:40:03;101384.38;;;14.85;53.28
7264;BME280;3673;52.480;13.348;2023-05-24T01:42:38;101388.69;;;14.97;52.61
7264;BME280;3673;52.480;13.348;2023-05-24T01:45:16;101391.88;;;15.34;51.88
7264;BME280;3673;52.480;13.348;2023-05-24T01:48:00;101391.06;;;15.26;51.92
7264;BME280;3673;52.480;13.348;2023-05-24T01:50:36;101397.63;;;14.81;52.91
7264;BME280;3673;52.480;13.348;2023-05-24T01:53:06;101394.00;;;14.92;52.63
7264;BME280;3673;52.480;13.348;2023-05-24T01:55:36;101389.50;;;15.02;52.49
7264;BME280;3673;52.480;13.348;2023-05-24T01:58:05;101392.97;;;15.09;52.56
7264;BME280;3673;52.480;13.348;2023-05-24T02:00:34;101397.25;;;15.22;52.10
7264;BME280;3673;52.480;13.348;2023-05-24T02:03:02;101396.53;;;15.02;52.27
7264;BME280;3673;52.480;13.348;2023-05-24T02:05:31;101384.69;;;15.46;51.45
7264;BME280;3673;52.480;13.348;2023-05-24T02:07:58;101380.31;;;15.49;51.06
7264;BME280;3673;52.480;13.348;2023-05-24T02:10:25;101393.75;;;15.18;52.25
7264;BME280;3673;52.480;13.348;2023-05-24T02:12:51;101398.94;;;15.30;51.22
7264;BME280;3673;52.480;13.348;2023-05-24T02:15:18;101392.84;;;15.22;51.46
7264;BME280;3673;52.480;13.348;2023-05-24T02:17:46;101397.19;;;15.31;51.63
7264;BME280;3673;52.480;13.348;2023-05-24T02:20:13;101387.44;;;15.36;51.35
7264;BME280;3673;52.480;13.348;2023-05-24T02:22:41;101389.41;;;15.17;51.77
7264;BME280;3673;52.480;13.348;2023-05-24T02:25:08;101387.47;;;15.31;51.70
7264;BME280;3673;52.480;13.348;2023-05-24T02:27:35;101386.00;;;15.03;52.04
7264;BME280;3673;52.480;13.348;2023-05-24T02:30:03;101386.97;;;14.91;52.45
7264;BME280;3673;52.480;13.348;2023-05-24T02:32:30;101383.69;;;14.62;52.88
7264;BME280;3673;52.480;13.348;2023-05-24T02:34:58;101387.94;;;14.81;52.98
7264;BME280;3673;52.480;13.348;2023-05-24T02:37:26;101388.53;;;15.15;52.33
7264;BME280;3673;52.480;13.348;2023-05-24T02:39:53;101387.91;;;14.87;52.87
7264;BME280;3673;52.480;13.348;2023-05-24T02:42:19;101386.91;;;14.99;52.68
7264;BME280;3673;52.480;13.348;2023-05-24T02:44:46;101385.81;;;15.24;52.68
7264;BME280;3673;52.480;13.348;2023-05-24T02:47:14;101389.31;;;15.25;52.18
7264;BME280;3673;52.480;13.348;2023-05-24T02:49:41;101391.03;;;15.29;51.99
7264;BME280;3673;52.480;13.348;2023-05-24T02:52:09;101392.81;;;15.25;51.88
7264;BME280;3673;52.480;13.348;2023-05-24T02:54:36;101388.84;;;14.80;53.19
7264;BME280;3673;52.480;13.348;2023-05-24T02:57:03;101394.06;;;14.82;53.34
7264;BME280;3673;52.480;13.348;2023-05-24T02:59:31;101389.38;;;15.19;52.43
7264;BME280;3673;52.480;13.348;2023-05-24T03:01:58;101393.25;;;14.77;53.61
7264;BME280;3673;52.480;13.348;2023-05-24T03:04:24;101388.88;;;14.71;53.61
7264;BME280;3673;52.480;13.348;2023-05-24T03:06:51;101385.28;;;14.81;53.56
7264;BME280;3673;52.480;13.348;2023-05-24T03:09:20;101394.53;;;15.29;52.32
7264;BME280;3673;52.480;13.348;2023-05-24T03:11:46;101392.94;;;15.13;53.00
7264;BME280;3673;52.480;13.348;2023-05-24T03:14:13;101399.94;;;15.17;52.65
7264;BME280;3673;52.480;13.348;2023-05-24T03:16:41;101399.66;;;15.48;51.90
7264;BME280;3673;52.480;13.348;2023-05-24T03:19:08;101384.69;;;15.48;51.69
7264;BME280;3673;52.480;13.348;2023-05-24T03:21:35;101393.59;;;15.36;52.01
7264;BME280;3673;52.480;13.348;2023-05-24T03:24:02;101400.75;;;15.24;51.73
7264;BME280;3673;52.480;13.348;2023-05-24T03:26:30;101401.84;;;15.00;52.75
7264;BME280;3673;52.480;13.348;2023-05-24T03:28:57;101404.44;;;15.02;52.35
7264;BME280;3673;52.480;13.348;2023-05-24T03:31:24;101401.81;;;15.03;52.48
7264;BME280;3673;52.480;13.348;2023-05-24T03:33:51;101404.69;;;14.74;53.23
7264;BME280;3673;52.480;13.348;2023-05-24T03:36:18;101401.56;;;14.03;54.39
7264;BME280;3673;52.480;13.348;2023-05-24T03:38:46;101406.38;;;14.81;52.88
7264;BME280;3673;52.480;13.348;2023-05-24T03:41:12;101402.94;;;14.72;53.29
7264;BME280;3673;52.480;13.348;2023-05-24T03:43:40;101407.47;;;14.50;53.58
7264;BME280;3673;52.480;13.348;2023-05-24T03:46:07;101411.63;;;14.83;52.59
7264;BME280;3673;52.480;13.348;2023-05-24T03:48:34;101418.78;;;14.66;52.65
7264;BME280;3673;52.480;13.348;2023-05-24T03:51:01;101416.97;;;14.72;52.69
7264;BME280;3673;52.480;13.348;2023-05-24T03:53:27;101415.91;;;14.94;52.16
7264;BME280;3673;52.480;13.348;2023-05-24T03:55:54;101413.03;;;15.25;51.40
7264;BME280;3673;52.480;13.348;2023-05-24T03:58:21;101415.34;;;14.56;52.69
7264;BME280;3673;52.480;13.348;2023-05-24T04:00:49;101412.31;;;15.11;51.76
7264;BME280;3673;52.480;13.348;2023-05-24T04:03:16;101424.38;;;15.33;51.33
7264;BME280;3673;52.480;13.348;2023-05-24T04:05:44;101417.72;;;14.88;52.41
7264;BME280;3673;52.480;13.348;2023-05-24T04:08:11;101416.72;;;15.06;51.55
7264;BME280;3673;52.480;13.348;2023-05-24T04:10:39;101411.28;;;15.27;51.70
7264;BME280;3673;52.480;13.348;2023-05-24T04:13:05;101421.50;;;15.59;50.66
7264;BME280;3673;52.480;13.348;2023-05-24T04:15:32;101420.44;;;14.79;52.77
7264;BME280;3673;52.480;13.348;2023-05-24T04:18:00;101422.25;;;14.72;52.64
7264;BME280;3673;52.480;13.348;2023-05-24T04:20:28;101423.53;;;15.29;51.51
7264;BME280;3673;52.480;13.348;2023-05-24T04:22:54;101420.38;;;14.89;51.94
7264;BME280;3673;52.480;13.348;2023-05-24T04:25:21;101423.69;;;15.13;51.61
7264;BME280;3673;52.480;13.348;2023-05-24T04:27:48;101424.59;;;15.10;51.75
7264;BME280;3673;52.480;13.348;2023-05-24T04:30:15;101426.28;;;15.19;52.19
7264;BME280;3673;52.480;13.348;2023-05-24T04:32:43;101426.13;;;15.35;51.34
7264;BME280;3673;52.480;13.348;2023-05-24T04:35:11;101429.84;;;15.13;51.28
7264;BME280;3673;52.480;13.348;2023-05-24T04:37:38;101436.03;;;15.09;51.38
7264;BME280;3673;52.480;13.348;2023-05-24T04:40:06;101431.75;;;14.93;51.81
7264;BME280;3673;52.480;13.348;2023-05-24T04:42:34;101431.97;;;14.67;51.43
7264;BME280;3673;52.480;13.348;2023-05-24T04:45:00;101428.97;;;15.13;51.10
7264;BME280;3673;52.480;13.348;2023-05-24T04:47:27;101436.56;;;15.48;49.96
7264;BME280;3673;52.480;13.348;2023-05-24T04:49:54;101435.69;;;15.47;50.13
7264;BME280;3673;52.480;13.348;2023-05-24T04:52:22;101436.19;;;14.91;50.75
7264;BME280;3673;52.480;13.348;2023-05-24T04:54:49;101445.69;;;15.10;50.64
7264;BME280;3673;52.480;13.348;2023-05-24T04:57:16;101456.94;;;15.29;49.93
7264;BME280;3673;52.480;13.348;2023-05-24T04:59:43;101455.50;;;14.90;50.80
7264;BME280;3673;52.480;13.348;2023-05-24T05:02:09;101460.72;;;14.98;50.70
7264;BME280;3673;52.480;13.348;2023-05-24T05:04:36;101473.94;;;14.90;50.56
7264;BME280;3673;52.480;13.348;2023-05-24T05:07:03;101468.69;;;14.90;50.53
7264;BME280;3673;52.480;13.348;2023-05-24T05:09:32;101466.88;;;14.92;50.76
7264;BME280;3673;52.480;13.348;2023-05-24T05:11:59;101472.38;;;14.60;51.27
7264;BME280;3673;52.480;13.348;2023-05-24T05:14:25;101470.47;;;14.83;50.59
7264;BME280;3673;52.480;13.348;2023-05-24T05:16:52;101476.56;;;14.88;50.66
7264;BME280;3673;52.480;13.348;2023-05-24T05:19:19;101472.91;;;15.14;49.97
7264;BME280;3673;52.480;13.348;2023-05-24T05:21:46;101477.03;;;15.42;49.49
7264;BME280;3673;52.480;13.348;2023-05-24T05:24:14;101476.38;;;15.17;49.81
7264;BME280;3673;52.480;13.348;2023-05-24T05:26:42;101480.78;;;15.15;49.70
7264;BME280;3673;52.480;13.348;2023-05-24T05:29:09;101485.56;;;14.57;50.70
7264;BME280;3673;52.480;13.348;2023-05-24T05:31:36;101494.44;;;14.26;51.32
7264;BME280;3673;52.480;13.348;2023-05-24T05:34:04;101482.06;;;14.54;51.06
7264;BME280;3673;52.480;13.348;2023-05-24T05:36:34;101493.41;;;14.65;50.65
7264;BME280;3673;52.480;13.348;2023-05-24T05:39:05;101487.44;;;14.34;51.19
7264;BME280;3673;52.480;13.348;2023-05-24T05:41:35;101491.59;;;14.77;50.62
7264;BME280;3673;52.480;13.348;2023-05-24T05:44:03;101496.19;;;14.30;51.67
7264;BME280;3673;52.480;13.348;2023-05-24T05:46:31;101511.16;;;14.20;51.48
7264;BME280;3673;52.480;13.348;2023-05-24T05:48:57;101503.94;;;14.69;50.67
7264;BME280;3673;52.480;13.348;2023-05-24T05:51:24;101504.97;;;14.36;51.11
7264;BME280;3673;52.480;13.348;2023-05-24T05:53:51;101500.59;;;14.31;51.67
7264;BME280;3673;52.480;13.348;2023-05-24T05:56:18;101510.91;;;14.81;50.70
7264;BME280;3673;52.480;13.348;2023-05-24T05:58:44;101515.25;;;14.86;50.79
7264;BME280;3673;52.480;13.348;2023-05-24T06:01:14;101513.53;;;14.75;51.16
7264;BME280;3673;52.480;13.348;2023-05-24T06:03:41;101516.34;;;14.43;51.66
7264;BME280;3673;52.480;13.348;2023-05-24T06:06:07;101511.03;;;14.57;51.51
7264;BME280;3673;52.480;13.348;2023-05-24T06:08:34;101508.25;;;14.82;51.17
7264;BME280;3673;52.480;13.348;2023-05-24T06:11:01;101518.03;;;14.61;51.21
7264;BME280;3673;52.480;13.348;2023-05-24T06:13:28;101523.81;;;15.16;50.14
7264;BME280;3673;52.480;13.348;2023-05-24T06:15:55;101528.16;;;15.24;49.73
7264;BME280;3673;52.480;13.348;2023-05-24T06:18:24;101529.75;;;15.46;48.98
7264;BME280;3673;52.480;13.348;2023-05-24T06:20:52;101531.72;;;15.19;49.88
7264;BME280;3673;52.480;13.348;2023-05-24T06:23:18;101531.13;;;14.74;51.01
7264;BME280;3673;52.480;13.348;2023-05-24T06:25:46;101527.38;;;15.09;50.53
7264;BME280;3673;52.480;13.348;2023-05-24T06:28:12;101530.59;;;15.53;49.27
7264;BME280;3673;52.480;13.348;2023-05-24T06:30:39;101529.75;;;15.51;49.24
7264;BME280;3673;52.480;13.348;2023-05-24T06:33:06;101526.53;;;15.05;50.33
7264;BME280;3673;52.480;13.348;2023-05-24T06:35:34;101528.84;;;15.52;49.62
7264;BME280;3673;52.480;13.348;2023-05-24T06:38:01;101533.50;;;15.17;50.05
7264;BME280;3673;52.480;13.348;2023-05-24T06:40:27;101529.22;;;14.99;50.86
7264;BME280;3673;52.480;13.348;2023-05-24T06:42:54;101534.53;;;14.88;51.15
7264;BME280;3673;52.480;13.348;2023-05-24T06:45:23;101543.06;;;15.30;50.25
7264;BME280;3673;52.480;13.348;2023-05-24T06:47:49;101556.50;;;14.84;51.21
7264;BME280;3673;52.480;13.348;2023-05-24T06:50:16;101550.44;;;14.76;51.58
7264;BME280;3673;52.480;13.348;2023-05-24T06:52:45;101559.06;;;15.03;51.00
7264;BME280;3673;52.480;13.348;2023-05-24T06:55:12;101555.47;;;15.11;51.00
7264;BME280;3673;52.480;13.348;2023-05-24T06:57:39;101553.63;;;15.27;50.52
7264;BME280;3673;52.480;13.348;2023-05-24T07:00:07;101562.16;;;15.64;49.97
7264;BME280;3673;52.480;13.348;2023-05-24T07:02:36;101566.28;;;15.93;49.11
7264;BME280;3673;52.480;13.348;2023-05-24T07:05:04;101559.38;;;15.80;49.42
7264;BME280;3673;52.480;13.348;2023-05-24T07:07:36;101569.41;;;15.33;50.42
7264;BME280;3673;52.480;13.348;2023-05-24T07:10:07;101557.09;;;15.32;50.71
7264;BME280;3673;52.480;13.348;2023-05-24T07:12:35;101566.47;;;15.74;51.24
7264;BME280;3673;52.480;13.348;2023-05-24T07:15:02;101559.38;;;15.79;49.29
7264;BME280;3673;52.480;13.348;2023-05-24T07:17:29;101577.84;;;15.80;49.48
7264;BME280;3673;52.480;13.348;2023-05-24T07:19:56;101567.63;;;15.32;50.28
7264;BME280;3673;52.480;13.348;2023-05-24T07:22:23;101575.25;;;15.77;49.96
7264;BME280;3673;52.480;13.348;2023-05-24T07:24:51;101580.50;;;15.76;49.84
7264;BME280;3673;52.480;13.348;2023-05-24T07:27:19;101581.53;;;15.58;50.31
7264;BME280;3673;52.480;13.348;2023-05-24T07:29:47;101581.72;;;15.29;51.05
7264;BME280;3673;52.480;13.348;2023-05-24T07:32:14;101584.25;;;15.51;50.20
7264;BME280;3673;52.480;13.348;2023-05-24T07:34:41;101581.31;;;15.85;50.15
7264;BME280;3673;52.480;13.348;2023-05-24T07:37:08;101589.44;;;15.60;50.32
7264;BME280;3673;52.480;13.348;2023-05-24T07:39:34;101586.72;;;15.70;50.24
7264;BME280;3673;52.480;13.348;2023-05-24T07:42:03;101599.03;;;15.70;50.03
7264;BME280;3673;52.480;13.348;2023-05-24T07:44:31;101588.66;;;15.50;50.57
7264;BME280;3673;52.480;13.348;2023-05-24T07:46:58;101595.28;;;15.96;49.73
7264;BME280;3673;52.480;13.348;2023-05-24T07:49:25;101595.06;;;16.21;49.03
7264;BME280;3673;52.480;13.348;2023-05-24T07:51:52;101608.38;;;16.06;49.44
7264;BME280;3673;52.480;13.348;2023-05-24T07:54:21;101599.06;;;15.65;50.21
7264;BME280;3673;52.480;13.348;2023-05-24T07:56:48;101611.28;;;15.78;50.06
7264;BME280;3673;52.480;13.348;2023-05-24T07:59:14;101610.16;;;16.07;49.72
7264;BME280;3673;52.480;13.348;2023-05-24T08:01:43;101617.03;;;16.24;49.47
7264;BME280;3673;52.480;13.348;2023-05-24T08:04:10;101611.44;;;15.60;50.35
7264;BME280;3673;52.480;13.348;2023-05-24T08:06:36;101613.09;;;15.69;50.28
7264;BME280;3673;52.480;13.348;2023-05-24T08:09:04;101617.41;;;15.82;49.89
7264;BME280;3673;52.480;13.348;2023-05-24T08:11:32;101615.56;;;15.93;49.29
7264;BME280;3673;52.480;13.348;2023-05-24T08:13:58;101620.97;;;15.75;50.01
7264;BME280;3673;52.480;13.348;2023-05-24T08:16:25;101615.44;;;16.07;49.16
7264;BME280;3673;52.480;13.348;2023-05-24T08:18:53;101625.53;;;16.49;47.97
7264;BME280;3673;52.480;13.348;2023-05-24T08:21:20;101610.75;;;16.34;48.18
7264;BME280;3673;52.480;13.348;2023-05-24T08:23:48;101621.47;;;16.21;48.28
7264;BME280;3673;52.480;13.348;2023-05-24T08:26:14;101631.50;;;15.81;49.37
7264;BME280;3673;52.480;13.348;2023-05-24T08:28:43;101626.88;;;16.06;48.65
7264;BME280;3673;52.480;13.348;2023-05-24T08:31:10;101630.44;;;16.00;49.30
7264;BME280;3673;52.480;13.348;2023-05-24T08:33:37;101629.97;;;16.47;48.12
7264;BME280;3673;52.480;13.348;2023-05-24T08:36:05;101629.72;;;16.73;47.76
7264;BME280;3673;52.480;13.348;2023-05-24T08:38:32;101620.78;;;16.84;47.70
7264;BME280;3673;52.480;13.348;2023-05-24T08:40:59;101630.63;;;16.69;47.62
7264;BME280;3673;52.480;13.348;2023-05-24T08:43:28;101628.19;;;17.22;46.46
7264;BME280;3673;52.480;13.348;2023-05-24T08:45:57;101637.56;;;16.79;47.19
7264;BME280;3673;52.480;13.348;2023-05-24T08:48:24;101628.22;;;17.19;46.34
7264;BME280;3673;52.480;13.348;2023-05-24T08:50:52;101636.47;;;16.95;46.77
7264;BME280;3673;52.480;13.348;2023-05-24T08:53:20;101634.63;;;17.03;46.37
7264;BME280;3673;52.480;13.348;2023-05-24T08:55:49;101644.66;;;16.75;47.13
7264;BME280;3673;52.480;13.348;2023-05-24T08:58:17;101640.81;;;16.18;49.02
7264;BME280;3673;52.480;13.348;2023-05-24T09:00:44;101645.22;;;16.21;48.63
7264;BME280;3673;52.480;13.348;2023-05-24T09:03:12;101639.47;;;16.66;48.12
7264;BME280;3673;52.480;13.348;2023-05-24T09:05:40;101650.59;;;16.92;46.97
7264;BME280;3673;52.480;13.348;2023-05-24T09:08:07;101651.38;;;17.02;45.60
7264;BME280;3673;52.480;13.348;2023-05-24T09:10:36;101654.53;;;17.30;45.59
7264;BME280;3673;52.480;13.348;2023-05-24T09:13:04;101655.47;;;17.26;45.48
7264;BME280;3673;52.480;13.348;2023-05-24T09:15:32;101649.94;;;16.75;46.61
7264;BME280;3673;52.480;13.348;2023-05-24T09:17:59;101654.25;;;16.84;46.42
7264;BME280;3673;52.480;13.348;2023-05-24T09:20:26;101654.19;;;16.88;46.33
7264;BME280;3673;52.480;13.348;2023-05-24T09:22:53;101649.38;;;17.19;45.54
7264;BME280;3673;52.480;13.348;2023-05-24T09:25:21;101647.06;;;17.61;44.77
7264;BME280;3673;52.480;13.348;2023-05-24T09:27:51;101643.53;;;17.59;44.34
7264;BME280;3673;52.480;13.348;2023-05-24T09:30:19;101652.06;;;17.15;45.21
7264;BME280;3673;52.480;13.348;2023-05-24T09:32:57;101656.25;;;17.32;44.91
7264;BME280;3673;52.480;13.348;2023-05-24T09:35:24;101646.56;;;17.31;44.70
7264;BME280;3673;52.480;13.348;2023-05-24T09:37:54;101651.22;;;17.13;44.81
7264;BME280;3673;52.480;13.348;2023-05-24T09:40:22;101650.69;;;16.86;45.16
7264;BME280;3673;52.480;13.348;2023-05-24T09:43:03;101657.16;;;16.61;45.77
7264;BME280;3673;52.480;13.348;2023-05-24T09:45:30;101657.28;;;17.22;45.06
7264;BME280;3673;52.480;13.348;2023-05-24T09:47:57;101650.44;;;17.06;44.51
7264;BME280;3673;52.480;13.348;2023-05-24T09:50:25;101653.19;;;17.64;43.98
7264;BME280;3673;52.480;13.348;2023-05-24T09:52:52;101658.97;;;17.26;44.17
7264;BME280;3673;52.480;13.348;2023-05-24T09:55:21;101660.22;;;16.98;44.35
7264;BME280;3673;52.480;13.348;2023-05-24T09:58:00;101671.63;;;17.02;44.14
7264;BME280;3673;52.480;13.348;2023-05-24T10:00:28;101667.84;;;17.22;43.90
7264;BME280;3673;52.480;13.348;2023-05-24T10:03:03;101668.31;;;16.87;45.70
7264;BME280;3673;52.480;13.348;2023-05-24T10:05:31;101669.16;;;16.89;45.73
7264;BME280;3673;52.480;13.348;2023-05-24T10:07:59;101669.56;;;17.25;44.98
7264;BME280;3673;52.480;13.348;2023-05-24T10:10:28;101674.91;;;17.22;45.06
7264;BME280;3673;52.480;13.348;2023-05-24T10:12:57;101676.66;;;17.21;44.08
7264;BME280;3673;52.480;13.348;2023-05-24T10:15:25;101680.19;;;17.22;44.37
7264;BME280;3673;52.480;13.348;2023-05-24T10:17:52;101676.09;;;16.98;45.05
7264;BME280;3673;52.480;13.348;2023-05-24T10:20:19;101671.88;;;17.49;44.70
7264;BME280;3673;52.480;13.348;2023-05-24T10:22:51;101672.94;;;17.37;44.65
7264;BME280;3673;52.480;13.348;2023-05-24T10:25:21;101676.75;;;17.81;44.13
7264;BME280;3673;52.480;13.348;2023-05-24T10:27:53;101674.34;;;16.97;45.77
7264;BME280;3673;52.480;13.348;2023-05-24T10:30:29;101674.41;;;17.60;45.03
7264;BME280;3673;52.480;13.348;2023-05-24T10:32:58;101667.94;;;17.15;45.07
7264;BME280;3673;52.480;13.348;2023-05-24T10:35:27;101675.44;;;16.79;45.46
7264;BME280;3673;52.480;13.348;2023-05-24T10:37:55;101677.88;;;16.96;45.00
7264;BME280;3673;52.480;13.348;2023-05-24T10:40:22;101681.03;;;17.25;44.96
7264;BME280;3673;52.480;13.348;2023-05-24T10:42:51;101679.44;;;17.78;43.81
7264;BME280;3673;52.480;13.348;2023-05-24T10:45:35;101677.09;;;18.12;43.25
7264;BME280;3673;52.480;13.348;2023-05-24T10:50:47;101684.38;;;18.48;42.27
7264;BME280;3673;52.480;13.348;2023-05-24T10:53:15;101682.88;;;18.84;41.31
7264;BME280;3673;52.480;13.348;2023-05-24T10:55:54;101678.81;;;19.50;40.01
7264;BME280;3673;52.480;13.348;2023-05-24T10:58:26;101676.34;;;20.50;38.32
7264;BME280;3673;52.480;13.348;2023-05-24T11:00:55;101680.72;;;20.18;38.56
7264;BME280;3673;52.480;13.348;2023-05-24T11:03:22;101679.47;;;20.32;38.47
7264;BME280;3673;52.480;13.348;2023-05-24T11:05:53;101675.91;;;19.98;38.32
7264;BME280;3673;52.480;13.348;2023-05-24T11:08:24;101677.41;;;19.73;38.89
7264;BME280;3673;52.480;13.348;2023-05-24T11:11:03;101675.78;;;19.27;39.49
7264;BME280;3673;52.480;13.348;2023-05-24T11:13:32;101676.03;;;19.55;39.08
7264;BME280;3673;52.480;13.348;2023-05-24T11:15:59;101678.91;;;19.46;39.67
7264;BME280;3673;52.480;13.348;2023-05-24T11:18:27;101683.28;;;19.07;39.52
7264;BME280;3673;52.480;13.348;2023-05-24T11:20:56;101685.41;;;18.90;39.62
7264;BME280;3673;52.480;13.348;2023-05-24T11:23:25;101681.75;;;18.48;40.17
7264;BME280;3673;52.480;13.348;2023-05-24T11:25:51;101675.59;;;18.93;39.18
7264;BME280;3673;52.480;13.348;2023-05-24T11:28:18;101679.69;;;19.10;39.15
7264;BME280;3673;52.480;13.348;2023-05-24T11:30:47;101678.25;;;18.93;39.33
7264;BME280;3673;52.480;13.348;2023-05-24T11:33:15;101675.31;;;19.07;39.51
7264;BME280;3673;52.480;13.348;2023-05-24T11:35:43;101674.97;;;19.24;39.45
7264;BME280;3673;52.480;13.348;2023-05-24T11:38:12;101670.53;;;19.24;39.30
7264;BME280;3673;52.480;13.348;2023-05-24T11:40:41;101675.22;;;19.51;38.47
7264;BME280;3673;52.480;13.348;2023-05-24T11:43:11;101687.34;;;18.80;39.60
7264;BME280;3673;52.480;13.348;2023-05-24T11:45:41;101682.81;;;18.87;39.86
7264;BME280;3673;52.480;13.348;2023-05-24T11:48:08;101686.69;;;19.14;39.57
7264;BME280;3673;52.480;13.348;2023-05-24T11:50:39;101681.97;;;19.66;38.55
7264;BME280;3673;52.480;13.348;2023-05-24T11:53:10;101683.59;;;19.32;39.00
7264;BME280;3673;52.480;13.348;2023-05-24T11:55:38;101678.63;;;19.58;38.41
7264;BME280;3673;52.480;13.348;2023-05-24T11:58:09;101675.44;;;19.81;38.29
7264;BME280;3673;52.480;13.348;2023-05-24T12:00:37;101685.75;;;20.94;36.16
7264;BME280;3673;52.480;13.348;2023-05-24T12:03:04;101685.38;;;21.65;34.39
7264;BME280;3673;52.480;13.348;2023-05-24T12:05:33;101684.34;;;22.25;33.66
7264;BME280;3673;52.480;13.348;2023-05-24T12:08:02;101685.97;;;20.87;34.93
7264;BME280;3673;52.480;13.348;2023-05-24T12:10:33;101683.69;;;20.41;36.70
7264;BME280;3673;52.480;13.348;2023-05-24T12:13:00;101685.91;;;20.58;36.18
7264;BME280;3673;52.480;13.348;2023-05-24T12:15:27;101688.56;;;20.58;36.68
7264;BME280;3673;52.480;13.348;2023-05-24T12:17:55;101689.88;;;20.06;37.45
7264;BME280;3673;52.480;13.348;2023-05-24T12:20:22;101686.00;;;19.84;38.03
7264;BME280;3673;52.480;13.348;2023-05-24T12:22:51;101686.94;;;19.81;38.62
7264;BME280;3673;52.480;13.348;2023-05-24T12:25:20;101701.91;;;19.47;39.54
7264;BME280;3673;52.480;13.348;2023-05-24T12:27:52;101706.13;;;19.13;40.28
7264;BME280;3673;52.480;13.348;2023-05-24T12:30:22;101696.34;;;18.72;40.58
7264;BME280;3673;52.480;13.348;2023-05-24T12:32:49;101692.03;;;18.66;40.98
7264;BME280;3673;52.480;13.348;2023-05-24T12:35:19;101695.88;;;18.50;40.80
7264;BME280;3673;52.480;13.348;2023-05-24T12:37:46;101699.47;;;18.46;41.36
7264;BME280;3673;52.480;13.348;2023-05-24T12:40:15;101699.63;;;18.86;40.41
7264;BME280;3673;52.480;13.348;2023-05-24T12:42:45;101694.75;;;18.63;40.69
7264;BME280;3673;52.480;13.348;2023-05-24T12:45:16;101694.94;;;18.52;40.52
7264;BME280;3673;52.480;13.348;2023-05-24T12:47:49;101697.47;;;18.59;41.06
7264;BME280;3673;52.480;13.348;2023-05-24T12:50:17;101706.13;;;19.14;40.01
7264;BME280;3673;52.480;13.348;2023-05-24T12:52:44;101693.28;;;18.94;40.31
7264;BME280;3673;52.480;13.348;2023-05-24T12:55:12;101700.97;;;19.07;40.08
7264;BME280;3673;52.480;13.348;2023-05-24T12:57:39;101703.19;;;19.26;39.87
7264;BME280;3673;52.480;13.348;2023-05-24T13:00:08;101694.13;;;19.78;39.19
7264;BME280;3673;52.480;13.348;2023-05-24T13:02:37;101691.19;;;19.88;38.35
7264;BME280;3673;52.480;13.348;2023-05-24T13:05:07;101693.41;;;20.07;38.68
7264;BME280;3673;52.480;13.348;2023-05-24T13:07:35;101681.91;;;20.41;38.01
7264;BME280;3673;52.480;13.348;2023-05-24T13:10:02;101689.03;;;20.39;38.08